Weather History for Ogallala, NE

Change the Weather History Date:

Thursday, February 14, 2013

  Actual Average Record
Temperature  
Mean Temperature 28 °F -  
Max Temperature 37 °F 44 °F 72 °F (1954)
Min Temperature 18 °F 18 °F -8 °F (1951)
Degree Days  
Heating Degree Days 38    
Moisture  
Dew Point 23 °F    
Average Humidity 73    
Maximum Humidity 92    
Minimum Humidity 46    
Precipitation  
Precipitation 0.00 in - - ()
Sea Level Pressure  
Sea Level Pressure 30.14 in    
Wind  
Wind Speed 14 mph (NNW)    
Max Wind Speed 30 mph    
Max Gust Speed 37 mph    
Visibility 10 miles    
Events Snow    
Averages and records for this station are not official NWS values.
T = Trace of Precipitation, MM = Missing Value Source: NWS Daily Summary

Daily Weather History Graph

Daily Weather History Graph

Search for Another Location

Airport:

Trip Planner

Search our weather history database for the weather conditions in past years. The results will help you decide how hot, cold, wet, or windy it might be!

Date:

Astronomy

Feb. 14, 2013 Rise Set
Actual Time 6:42 AM MST 5:20 PM MST
Civil Twilight 6:14 AM MST 5:48 PM MST
Nautical Twilight 5:42 AM MST 6:21 PM MST
Astronomical Twilight 5:10 AM MST 6:53 PM MST
Moon 8:42 AM MST (2/14) 10:28 PM MST (2/14)
Length of Visible Light 11h 34m
Length of Day
10h 37m
Waxing Crescent, 22% of the Moon is Illuminated
Feb 14
Waxing Crescent
Feb 17
First Quarter
Feb 25
Full
Mar 4
Last Quarter
Mar 11
New

Hourly Weather History & Observations

Time (MST) Temp. Windchill Dew Point Humidity Pressure Visibility Wind Dir Wind Speed Gust Speed Precip Events Conditions
12:15 AM 33.4 °F 24.3 °F 28.4 °F 82% 29.99 in 10.0 mi NW 12.7 mph - N/A   Clear
12:35 AM 33.1 °F 24.4 °F 28.0 °F 82% 29.98 in 10.0 mi NW 11.5 mph - N/A   Clear
12:55 AM 33.4 °F 23.9 °F 27.9 °F 80% 29.98 in 10.0 mi NW 13.8 mph - N/A   Clear
1:15 AM 33.8 °F 24.3 °F 27.5 °F 78% 29.99 in 10.0 mi NW 13.8 mph - N/A   Clear
1:35 AM 34.0 °F 24.2 °F 27.5 °F 77% 29.99 in 10.0 mi NW 15.0 mph - N/A   Clear
1:55 AM 33.8 °F 23.9 °F 27.5 °F 78% 29.98 in 10.0 mi NNW 15.0 mph - N/A   Scattered Clouds
2:15 AM 33.6 °F 22.9 °F 27.3 °F 78% 29.99 in 10.0 mi NW 17.3 mph - N/A   Mostly Cloudy
2:35 AM 33.1 °F 23.4 °F 27.3 °F 79% 29.99 in 10.0 mi NW 13.8 mph - N/A   Scattered Clouds
3:15 AM 32.9 °F 23.2 °F 27.3 °F 80% 29.97 in 10.0 mi NNW 13.8 mph - N/A   Clear
3:35 AM 32.5 °F 22.7 °F 27.3 °F 81% 29.97 in 10.0 mi NW 13.8 mph - N/A   Clear
3:55 AM 32.2 °F 23.2 °F 27.1 °F 82% 29.99 in 10.0 mi NW 11.5 mph - N/A   Clear
4:15 AM 32.0 °F 23.0 °F 27.0 °F 82% 29.99 in 10.0 mi NW 11.5 mph - N/A   Scattered Clouds
4:35 AM 33.1 °F 23.9 °F 28.0 °F 82% 29.99 in 10.0 mi NW 12.7 mph - N/A   Mostly Cloudy
4:55 AM 33.8 °F 24.8 °F 28.2 °F 80% 29.99 in 10.0 mi NNW 12.7 mph - N/A   Overcast
5:15 AM 33.8 °F 25.8 °F 28.0 °F 79% 30.00 in 10.0 mi NNW 10.4 mph - N/A   Overcast
5:35 AM 33.4 °F 24.3 °F 28.0 °F 81% 30.00 in 10.0 mi NNW 12.7 mph - N/A   Overcast
5:55 AM 33.8 °F 24.8 °F 28.0 °F 79% 30.01 in 10.0 mi NNW 12.7 mph - N/A   Overcast
6:15 AM 33.4 °F 24.8 °F 28.0 °F 81% 30.01 in 10.0 mi NNW 11.5 mph - N/A   Overcast
6:35 AM 33.3 °F 24.1 °F 28.0 °F 81% 30.01 in 10.0 mi NNW 12.7 mph - N/A   Overcast
6:55 AM 33.3 °F 24.6 °F 28.0 °F 81% 30.02 in 10.0 mi NNW 11.5 mph - N/A   Overcast
7:15 AM 33.8 °F 25.3 °F 28.2 °F 80% 30.04 in 10.0 mi NNW 11.5 mph - N/A   Overcast
7:35 AM 33.8 °F 24.8 °F 28.2 °F 80% 30.05 in 10.0 mi NNW 12.7 mph - N/A   Overcast
7:55 AM 34.2 °F 25.7 °F 28.4 °F 79% 30.06 in 10.0 mi NNW 11.5 mph - N/A   Overcast
8:15 AM 34.9 °F 25.7 °F 28.4 °F 77% 30.07 in 10.0 mi NNW 13.8 mph - N/A   Overcast
8:35 AM 35.6 °F 26.2 °F 28.2 °F 75% 30.08 in 10.0 mi NNW 15.0 mph 19.6 mph N/A   Mostly Cloudy
8:55 AM 35.8 °F 26.1 °F 27.9 °F 73% 30.08 in 10.0 mi NNW 16.1 mph 19.6 mph N/A   Mostly Cloudy
9:15 AM 35.6 °F 27.5 °F 27.9 °F 73% 30.08 in 10.0 mi NW 11.5 mph - N/A   Overcast
9:35 AM 36.0 °F 27.5 °F 27.7 °F 72% 30.09 in 10.0 mi NW 12.7 mph - N/A   Overcast
9:55 AM 36.7 °F 26.6 °F 27.0 °F 68% 30.10 in 10.0 mi NW 18.4 mph 21.9 mph N/A   Overcast
10:15 AM 36.9 °F 26.8 °F 26.6 °F 66% 30.12 in 10.0 mi NW 18.4 mph 24.2 mph N/A   Overcast
10:35 AM 36.9 °F 25.9 °F 25.0 °F 62% 30.13 in 10.0 mi NW 21.9 mph 27.6 mph N/A   Overcast
10:55 AM 36.9 °F 25.1 °F 21.9 °F 55% 30.15 in 10.0 mi NW 25.3 mph 32.2 mph N/A   Overcast
11:15 AM 36.9 °F 24.4 °F 22.1 °F 55% 30.15 in 10.0 mi NW 28.8 mph 35.7 mph N/A   Overcast
11:35 AM 36.5 °F 24.0 °F 20.7 °F 53% 30.15 in 10.0 mi NNW 28.8 mph 36.8 mph N/A   Overcast
11:55 AM 36.5 °F 24.2 °F 21.0 °F 54% 30.15 in 10.0 mi NNW 27.6 mph 32.2 mph N/A   Overcast
12:15 PM 35.8 °F 23.4 °F 20.1 °F 53% 30.16 in 10.0 mi NNW 26.5 mph 33.4 mph N/A   Mostly Cloudy
12:35 PM 35.6 °F 22.5 °F 20.3 °F 54% 30.16 in 10.0 mi NW 29.9 mph 34.5 mph N/A   Scattered Clouds
12:55 PM 35.8 °F 23.9 °F 20.3 °F 53% 30.17 in 10.0 mi NNW 24.2 mph 29.9 mph N/A   Mostly Cloudy
1:15 PM 36.5 °F 25.4 °F 19.9 °F 51% 30.16 in 10.0 mi NNW 21.9 mph 28.8 mph N/A   Scattered Clouds
1:35 PM 37.6 °F 26.6 °F 19.6 °F 48% 30.16 in 10.0 mi NNW 23.0 mph 27.6 mph N/A   Scattered Clouds
1:55 PM 36.5 °F 25.7 °F 18.5 °F 48% 30.17 in 10.0 mi NNW 20.7 mph 27.6 mph N/A   Scattered Clouds
2:15 PM 36.9 °F 25.6 °F 17.8 °F 46% 30.17 in 10.0 mi NNW 23.0 mph 27.6 mph N/A   Scattered Clouds
2:35 PM 36.5 °F 26.7 °F 18.3 °F 48% 30.18 in 10.0 mi NNW 17.3 mph 23.0 mph N/A   Scattered Clouds
2:55 PM 34.9 °F 24.2 °F 18.3 °F 51% 30.20 in 10.0 mi North 18.4 mph 25.3 mph N/A   Overcast
3:15 PM 34.7 °F 24.7 °F 18.7 °F 52% 30.21 in 10.0 mi North 16.1 mph 21.9 mph N/A   Overcast
3:35 PM 35.8 °F 24.5 °F 18.3 °F 49% 30.21 in 10.0 mi North 21.9 mph 25.3 mph N/A   Mostly Cloudy
3:55 PM 34.7 °F 25.1 °F 18.9 °F 52% 30.22 in 10.0 mi North 15.0 mph 25.3 mph N/A   Clear
4:15 PM 33.1 °F 22.2 °F 20.1 °F 59% 30.23 in 10.0 mi North 17.3 mph - N/A   Clear
4:35 PM 32.0 °F 21.6 °F 21.2 °F 64% 30.24 in 10.0 mi North 15.0 mph - N/A   Scattered Clouds
4:55 PM 31.3 °F 22.1 °F 22.1 °F 69% 30.24 in 10.0 mi North 11.5 mph - N/A   Mostly Cloudy
5:15 PM 29.5 °F 23.4 °F 23.9 °F 80% 30.24 in 5.0 mi NNW 5.8 mph 10.4 mph N/A Snow Light Snow
5:35 PM 29.7 °F 22.0 °F 23.0 °F 76% 30.25 in 10.0 mi North 8.1 mph - N/A   Overcast
5:55 PM 29.3 °F 22.3 °F 23.4 °F 78% 30.25 in 10.0 mi NNW 6.9 mph - N/A   Overcast
6:15 PM 29.3 °F 23.2 °F 23.0 °F 77% 30.27 in 10.0 mi NNW 5.8 mph - N/A   Overcast
6:35 PM 29.3 °F 23.2 °F 23.0 °F 77% 30.27 in 10.0 mi North 5.8 mph - N/A   Overcast
6:55 PM 27.5 °F 20.2 °F 22.3 °F 81% 30.27 in 10.0 mi North 6.9 mph - N/A   Mostly Cloudy
7:15 PM 28.2 °F 23.1 °F 23.7 °F 83% 30.28 in 10.0 mi NNE 4.6 mph - N/A   Mostly Cloudy
7:35 PM 25.3 °F - 21.6 °F 86% 30.28 in 10.0 mi Calm Calm - N/A   Scattered Clouds
7:55 PM 24.3 °F 18.4 °F 21.0 °F 87% 30.28 in 10.0 mi NW 4.6 mph - N/A   Mostly Cloudy
8:15 PM 24.3 °F 19.9 °F 20.8 °F 87% 30.29 in 10.0 mi NNW 3.5 mph - N/A   Overcast
8:35 PM 23.5 °F 15.4 °F 19.8 °F 85% 30.29 in 10.0 mi NNW 6.9 mph - N/A   Scattered Clouds
8:55 PM 22.8 °F 16.7 °F 19.2 °F 86% 30.29 in 10.0 mi NW 4.6 mph - N/A   Mostly Cloudy
9:15 PM 21.6 °F 16.8 °F 18.5 °F 88% 30.29 in 10.0 mi WNW 3.5 mph - N/A   Scattered Clouds
9:35 PM 18.5 °F 11.7 °F 15.8 °F 89% 30.29 in 10.0 mi West 4.6 mph - N/A   Clear
9:55 PM 18.7 °F - 16.7 °F 92% 30.29 in 10.0 mi Calm Calm - N/A   Scattered Clouds
10:15 PM 22.3 °F 13.9 °F 19.6 °F 89% 30.30 in 10.0 mi NW 6.9 mph - N/A   Mostly Cloudy
10:35 PM 21.7 °F 11.5 °F 18.3 °F 87% 30.30 in 10.0 mi NW 9.2 mph - N/A   Scattered Clouds
10:55 PM 21.0 °F 11.4 °F 17.4 °F 86% 30.30 in 10.0 mi NW 8.1 mph - N/A   Clear
11:35 PM 18.5 °F 7.5 °F 15.4 °F 88% 30.30 in 10.0 mi NNW 9.2 mph - N/A   Clear
11:55 PM 19.0 °F 7.5 °F 15.6 °F 87% 30.30 in 10.0 mi NW 10.4 mph - N/A   Clear